Time;durP1;ratioP1;P1;durP2;ratioP2;P2;SDS_P1;SDS_P2;PMS_P1;PMS_P2;Temp;Humidity;BMP_temperature;BMP_pressure;BME280_temperature;BME280_humidity;BME280_pressure;Samples;Min_cycle;Max_cycle;Signal;HPM_P1;HPM_P2
2021/09/12 00:01:20;;;;;;;51.85;26.75;;;17.00;99.10;;;;;;5015630;28;20167;-67
2021/09/12 00:03:45;;;;;;;49.70;27.00;;;17.00;99.10;;;;;;5002110;28;20038;-66
2021/09/12 00:06:11;;;;;;;53.17;28.35;;;17.00;99.20;;;;;;5000125;28;20037;-68
2021/09/12 00:08:36;;;;;;;55.25;27.33;;;17.00;99.20;;;;;;5001321;28;20666;-67
2021/09/12 00:11:02;;;;;;;54.22;29.48;;;17.00;99.20;;;;;;5010370;28;20484;-66
2021/09/12 00:13:28;;;;;;;57.00;28.88;;;17.00;99.20;;;;;;5002437;28;20041;-66
2021/09/12 00:15:54;;;;;;;57.20;28.88;;;17.00;99.20;;;;;;5000030;28;20262;-67
2021/09/12 00:18:19;;;;;;;57.30;29.83;;;17.00;99.20;;;;;;5000860;28;20033;-67
2021/09/12 00:20:45;;;;;;;52.85;29.38;;;17.00;99.20;;;;;;5003436;28;20107;-67
2021/09/12 00:23:11;;;;;;;61.78;29.77;;;17.00;99.20;;;;;;5006151;28;20025;-67
2021/09/12 00:25:36;;;;;;;59.40;30.40;;;17.00;99.20;;;;;;5006192;28;20378;-67
2021/09/12 00:28:02;;;;;;;61.03;30.52;;;17.00;99.10;;;;;;4999377;28;20026;-67
2021/09/12 00:30:28;;;;;;;59.17;30.02;;;17.00;99.20;;;;;;4997756;28;20034;-67
2021/09/12 00:32:53;;;;;;;66.72;30.80;;;17.00;99.20;;;;;;4995238;28;20550;-66
2021/09/12 00:35:19;;;;;;;70.60;32.10;;;17.00;99.20;;;;;;5001590;28;20036;-67
2021/09/12 00:37:47;;;;;;;63.17;32.60;;;17.00;99.20;;;;;;4998724;28;20088;-66
2021/09/12 00:40:13;;;;;;;68.97;34.58;;;17.00;99.20;;;;;;5002627;28;20115;-67
2021/09/12 00:42:39;;;;;;;76.88;34.58;;;17.00;99.30;;;;;;4999905;28;20261;-66
2021/09/12 00:45:05;;;;;;;70.78;32.95;;;17.00;99.30;;;;;;5002455;28;20034;-68
2021/09/12 00:47:31;;;;;;;66.05;34.22;;;17.00;99.30;;;;;;5002935;28;20034;-67
2021/09/12 00:49:56;;;;;;;69.53;34.80;;;17.00;99.30;;;;;;5002224;28;20060;-67
2021/09/12 00:52:24;;;;;;;71.63;33.97;;;17.00;99.30;;;;;;4997651;28;20123;-67
2021/09/12 00:54:50;;;;;;;69.78;32.72;;;17.00;99.30;;;;;;4997987;28;20077;-66
2021/09/12 00:57:16;;;;;;;63.35;33.22;;;17.00;99.30;;;;;;5001165;28;20624;-66
2021/09/12 00:59:43;;;;;;;73.82;34.20;;;17.00;99.30;;;;;;5002878;28;20080;-67
2021/09/12 01:02:09;;;;;;;72.35;35.78;;;17.00;99.30;;;;;;5003430;28;21330;-67
2021/09/12 01:04:36;;;;;;;68.20;35.30;;;17.00;99.30;;;;;;5003271;28;20049;-67
2021/09/12 01:07:04;;;;;;;72.82;35.70;;;17.00;99.30;;;;;;5001519;28;20042;-67
2021/09/12 01:09:30;;;;;;;69.45;34.95;;;17.00;99.30;;;;;;5008460;28;20398;-66
2021/09/12 01:12:00;;;;;;;75.13;35.13;;;17.00;99.30;;;;;;5002089;28;20096;-67
2021/09/12 01:14:27;;;;;;;73.80;35.08;;;17.00;99.30;;;;;;5000408;28;20026;-67
2021/09/12 01:16:53;;;;;;;75.10;36.08;;;17.00;99.20;;;;;;4999926;28;20049;-66
2021/09/12 01:19:20;;;;;;;68.60;34.33;;;17.00;99.20;;;;;;4996370;28;20382;-67
2021/09/12 01:21:45;;;;;;;71.97;36.42;;;17.00;99.20;;;;;;5006149;28;20441;-68
2021/09/12 01:24:12;;;;;;;64.38;33.88;;;17.00;99.20;;;;;;5002185;28;20034;-66
2021/09/12 01:26:37;;;;;;;61.03;33.20;;;17.00;99.20;;;;;;5000424;28;20420;-67
2021/09/12 01:29:04;;;;;;;64.28;34.08;;;17.00;99.10;;;;;;5002015;28;20033;-65
2021/09/12 01:31:32;;;;;;;64.97;35.50;;;17.00;99.10;;;;;;4995719;28;20456;-67
2021/09/12 01:33:58;;;;;;;66.28;33.50;;;17.00;99.00;;;;;;4999438;28;20025;-67
2021/09/12 01:36:25;;;;;;;66.13;35.55;;;17.00;99.00;;;;;;5002460;28;20025;-67
2021/09/12 01:38:51;;;;;;;63.53;33.10;;;17.00;99.00;;;;;;5001511;28;20120;-65
2021/09/12 01:41:17;;;;;;;63.75;33.83;;;17.00;98.90;;;;;;4999313;28;20148;-67
2021/09/12 01:43:49;;;;;;;62.80;33.20;;;17.00;98.90;;;;;;5004378;28;20029;-66
2021/09/12 01:46:16;;;;;;;58.45;31.75;;;17.00;98.80;;;;;;4997322;28;20025;-67
2021/09/12 01:48:42;;;;;;;69.00;34.22;;;17.00;98.80;;;;;;4998952;28;20042;-66
2021/09/12 01:51:08;;;;;;;57.63;32.40;;;16.90;98.90;;;;;;5002873;28;20681;-67
2021/09/12 01:53:34;;;;;;;65.10;34.30;;;16.90;98.90;;;;;;5002837;28;20033;-67
2021/09/12 01:56:00;;;;;;;63.22;34.30;;;16.90;98.80;;;;;;4997147;28;20064;-67
2021/09/12 01:58:28;;;;;;;63.95;33.60;;;16.90;98.90;;;;;;5003603;28;20022;-66
2021/09/12 02:00:54;;;;;;;66.28;32.08;;;16.80;98.90;;;;;;5003605;28;20041;-67
2021/09/12 02:03:20;;;;;;;66.90;32.97;;;16.70;98.90;;;;;;5009719;28;20038;-67
2021/09/12 02:05:46;;;;;;;72.05;34.97;;;16.60;98.90;;;;;;4993454;28;20038;-65
2021/09/12 02:08:11;;;;;;;75.30;34.00;;;16.60;99.00;;;;;;5004608;28;20050;-66
2021/09/12 02:10:37;;;;;;;82.70;36.10;;;16.50;99.00;;;;;;5008290;28;20052;-68
2021/09/12 02:13:02;;;;;;;83.13;36.47;;;16.50;99.20;;;;;;5005960;28;20211;-67
2021/09/12 02:15:28;;;;;;;95.25;37.30;;;16.50;99.20;;;;;;5006980;28;20101;-65
2021/09/12 02:17:54;;;;;;;95.43;37.17;;;16.50;99.30;;;;;;5004357;28;20026;-66
2021/09/12 02:20:19;;;;;;;80.32;36.45;;;16.60;99.30;;;;;;5010910;28;20121;-68
2021/09/12 02:22:45;;;;;;;81.32;36.60;;;16.60;99.30;;;;;;5005173;28;20026;-67
2021/09/12 02:25:11;;;;;;;79.85;37.42;;;16.50;99.20;;;;;;4995378;28;20030;-66
2021/09/12 02:27:36;;;;;;;78.88;36.50;;;16.50;99.20;;;;;;5002516;28;20026;-66
2021/09/12 02:30:04;;;;;;;73.93;35.03;;;16.50;99.20;;;;;;5007002;28;20131;-67
2021/09/12 02:32:29;;;;;;;71.60;35.10;;;16.50;99.20;;;;;;5003420;28;20493;-67
2021/09/12 02:34:55;;;;;;;75.13;35.58;;;16.50;99.20;;;;;;5006277;28;20080;-66
2021/09/12 02:37:21;;;;;;;80.05;35.80;;;16.60;99.20;;;;;;4995173;28;20034;-66
2021/09/12 02:39:47;;;;;;;76.28;36.25;;;16.50;99.20;;;;;;5011430;28;20759;-66
2021/09/12 02:42:12;;;;;;;71.20;33.95;;;16.50;99.10;;;;;;5013564;28;20634;-67
2021/09/12 02:44:38;;;;;;;66.10;34.45;;;16.50;99.10;;;;;;5006497;28;20026;-65
2021/09/12 02:47:04;;;;;;;67.50;33.10;;;16.60;99.10;;;;;;5006847;28;20030;-67
2021/09/12 02:49:29;;;;;;;68.18;33.78;;;16.60;99.10;;;;;;5003470;28;20030;-67
2021/09/12 02:51:55;;;;;;;73.75;34.72;;;16.60;99.20;;;;;;5004548;28;20030;-68
2021/09/12 02:54:20;;;;;;;73.93;34.95;;;16.50;99.10;;;;;;4999919;28;20588;-66
2021/09/12 02:56:46;;;;;;;71.40;33.75;;;16.60;99.10;;;;;;5019586;28;20028;-67
2021/09/12 02:59:12;;;;;;;63.72;33.03;;;16.50;99.10;;;;;;5002896;28;20058;-67
2021/09/12 03:01:37;;;;;;;64.55;33.55;;;16.50;99.10;;;;;;5007605;28;20384;-65
2021/09/12 03:04:03;;;;;;;70.05;33.95;;;16.60;99.10;;;;;;5003785;28;20027;-67
2021/09/12 03:06:29;;;;;;;67.93;33.63;;;16.60;99.10;;;;;;4994146;28;20030;-67
2021/09/12 03:08:54;;;;;;;72.65;35.05;;;16.50;99.10;;;;;;5003456;28;20076;-67
2021/09/12 03:11:20;;;;;;;70.72;32.17;;;16.50;99.10;;;;;;4997232;28;20132;-67
2021/09/12 03:13:45;;;;;;;65.20;34.55;;;16.60;99.10;;;;;;5003485;28;20037;-67
2021/09/12 03:16:11;;;;;;;66.30;32.90;;;16.50;99.10;;;;;;4999673;28;20025;-68
2021/09/12 03:18:37;;;;;;;71.05;35.72;;;16.50;99.00;;;;;;5004131;28;20113;-67
2021/09/12 03:21:03;;;;;;;68.05;34.17;;;16.60;99.10;;;;;;5005949;28;20037;-66
2021/09/12 03:23:28;;;;;;;69.00;34.15;;;16.60;99.00;;;;;;5005848;28;20025;-66
2021/09/12 03:25:54;;;;;;;73.80;34.90;;;16.60;99.10;;;;;;4998946;28;20033;-67
2021/09/12 03:28:20;;;;;;;73.35;34.53;;;16.60;99.00;;;;;;5004273;28;20026;-68
2021/09/12 03:30:45;;;;;;;73.93;35.60;;;16.60;99.00;;;;;;5004837;28;20030;-67
2021/09/12 03:33:14;;;;;;;72.07;35.05;;;16.60;98.90;;;;;;5004686;28;20026;-66
2021/09/12 03:35:40;;;;;;;71.05;33.55;;;16.60;98.90;;;;;;5005218;28;20022;-67
2021/09/12 03:38:06;;;;;;;66.05;34.22;;;16.60;98.90;;;;;;5008274;28;20022;-67
2021/09/12 03:40:32;;;;;;;66.93;33.30;;;16.60;98.80;;;;;;5007468;28;20358;-67
2021/09/12 03:42:58;;;;;;;70.15;33.78;;;16.50;98.80;;;;;;5000651;28;20030;-68
2021/09/12 03:45:24;;;;;;;65.75;34.38;;;16.50;98.80;;;;;;4998551;28;20038;-68
2021/09/12 03:47:49;;;;;;;65.53;34.10;;;16.50;98.90;;;;;;5002837;28;20095;-67
2021/09/12 03:50:15;;;;;;;67.93;33.60;;;16.50;98.90;;;;;;5004805;28;20120;-67
2021/09/12 03:52:41;;;;;;;71.32;34.05;;;16.40;98.90;;;;;;5003689;28;20084;-67
2021/09/12 03:55:10;;;;;;;72.57;34.30;;;16.40;98.90;;;;;;5006552;28;20208;-68
2021/09/12 03:57:37;;;;;;;70.38;33.65;;;16.30;99.00;;;;;;5004144;28;20036;-67
2021/09/12 04:00:05;;;;;;;76.72;33.95;;;16.20;99.00;;;;;;5004482;28;20040;-67
2021/09/12 04:02:30;;;;;;;79.80;34.25;;;16.20;99.10;;;;;;5000761;28;20034;-67
2021/09/12 04:04:56;;;;;;;84.15;35.92;;;16.10;99.10;;;;;;5004446;28;20057;-67
2021/09/12 04:07:21;;;;;;;85.72;35.25;;;16.00;99.20;;;;;;5003751;28;20022;-66
2021/09/12 04:09:47;;;;;;;89.80;35.00;;;16.00;99.30;;;;;;5008172;28;20155;-67
2021/09/12 04:12:12;;;;;;;102.40;37.70;;;16.00;99.30;;;;;;4997829;28;20532;-67
2021/09/12 04:14:38;;;;;;;90.40;36.30;;;15.90;99.40;;;;;;5002938;28;20030;-66
2021/09/12 04:17:04;;;;;;;97.97;36.30;;;15.80;99.30;;;;;;5004607;28;20030;-67
2021/09/12 04:19:29;;;;;;;89.38;37.13;;;15.80;99.40;;;;;;5010873;28;20029;-67
2021/09/12 04:21:55;;;;;;;97.13;37.83;;;15.80;99.50;;;;;;4998592;28;20029;-64
2021/09/12 04:24:21;;;;;;;103.20;37.20;;;15.90;99.50;;;;;;4998036;28;20038;-64
2021/09/12 04:26:47;;;;;;;82.97;34.53;;;15.90;99.50;;;;;;4997661;28;20030;-65
2021/09/12 04:29:12;;;;;;;116.47;37.92;;;15.80;99.50;;;;;;5001431;28;20117;-65
2021/09/12 04:31:38;;;;;;;105.30;36.95;;;15.80;99.60;;;;;;5001427;28;20025;-65
2021/09/12 04:34:04;;;;;;;108.78;37.47;;;15.80;99.60;;;;;;4998882;28;20022;-65
2021/09/12 04:36:29;;;;;;;112.28;36.78;;;15.80;99.70;;;;;;4995808;28;20176;-63
2021/09/12 04:38:55;;;;;;;105.75;37.10;;;15.80;99.70;;;;;;5000929;28;20022;-65
2021/09/12 04:41:21;;;;;;;107.90;37.45;;;15.80;99.70;;;;;;4996136;28;20389;-65
2021/09/12 04:43:46;;;;;;;108.22;36.85;;;15.90;99.70;;;;;;5000255;28;20026;-64
2021/09/12 04:46:12;;;;;;;113.07;36.65;;;15.80;99.70;;;;;;5003135;28;20038;-63
2021/09/12 04:48:38;;;;;;;101.75;35.47;;;15.90;99.70;;;;;;5000954;28;20036;-66
2021/09/12 04:51:03;;;;;;;106.32;37.22;;;15.90;99.80;;;;;;5004166;28;20026;-65
2021/09/12 04:53:29;;;;;;;104.78;37.85;;;15.90;99.80;;;;;;4999990;28;20022;-64
2021/09/12 04:55:54;;;;;;;101.70;35.88;;;16.00;99.80;;;;;;5007327;28;20022;-66
2021/09/12 04:58:20;;;;;;;99.38;34.67;;;16.00;99.80;;;;;;5004871;28;20028;-66
2021/09/12 05:00:46;;;;;;;101.18;34.75;;;16.00;99.80;;;;;;4991334;28;20085;-63
2021/09/12 05:03:11;;;;;;;93.78;36.53;;;16.00;99.80;;;;;;4992810;28;20038;-64
2021/09/12 05:05:37;;;;;;;94.63;34.80;;;16.00;99.80;;;;;;5005563;28;20045;-65
2021/09/12 05:08:03;;;;;;;88.45;33.75;;;16.00;99.80;;;;;;4995654;28;20062;-66
2021/09/12 05:10:28;;;;;;;91.57;34.20;;;16.00;99.80;;;;;;5006063;28;20111;-65
2021/09/12 05:12:54;;;;;;;88.47;35.80;;;16.10;99.70;;;;;;4995720;28;20050;-63
2021/09/12 05:15:19;;;;;;;84.38;35.58;;;16.10;99.70;;;;;;4998217;28;20969;-66
2021/09/12 05:17:45;;;;;;;80.93;33.35;;;16.10;99.70;;;;;;4998067;28;20567;-65
2021/09/12 05:20:11;;;;;;;82.72;34.28;;;16.20;99.80;;;;;;5001277;28;20026;-64
2021/09/12 05:22:38;;;;;;;75.88;33.83;;;16.20;99.70;;;;;;4996229;28;20494;-65
2021/09/12 05:25:04;;;;;;;71.80;33.10;;;16.20;99.60;;;;;;5001807;28;20057;-65
2021/09/12 05:27:30;;;;;;;73.57;32.45;;;16.20;99.60;;;;;;4991277;28;20503;-65
2021/09/12 05:29:56;;;;;;;74.65;33.90;;;16.20;99.60;;;;;;5000888;28;20038;-64
2021/09/12 05:32:22;;;;;;;67.95;33.38;;;16.30;99.60;;;;;;4996337;28;20029;-64
2021/09/12 05:34:48;;;;;;;66.15;32.13;;;16.30;99.50;;;;;;4997958;28;20026;-65
2021/09/12 05:37:14;;;;;;;74.28;33.30;;;16.30;99.50;;;;;;5002789;28;20045;-64
2021/09/12 05:39:40;;;;;;;70.70;31.98;;;16.40;99.50;;;;;;5004044;28;20026;-65
2021/09/12 05:42:05;;;;;;;69.63;32.50;;;16.40;99.40;;;;;;5005947;28;20030;-65
2021/09/12 05:44:32;;;;;;;64.80;32.50;;;16.40;99.30;;;;;;4997364;28;20105;-65
2021/09/12 05:46:58;;;;;;;63.58;31.75;;;16.40;99.30;;;;;;4995490;28;20034;-65
2021/09/12 05:49:24;;;;;;;63.42;31.75;;;16.40;99.20;;;;;;5004808;28;20130;-65
2021/09/12 05:51:49;;;;;;;61.47;31.67;;;16.50;99.20;;;;;;5002846;28;20500;-65
2021/09/12 05:54:15;;;;;;;62.75;32.45;;;16.50;99.20;;;;;;4999397;28;20030;-64
2021/09/12 05:56:41;;;;;;;62.05;31.05;;;16.50;99.10;;;;;;5004828;28;20092;-64
2021/09/12 05:59:07;;;;;;;63.33;32.47;;;16.50;99.10;;;;;;5005239;28;20041;-64
2021/09/12 06:01:33;;;;;;;60.30;30.65;;;16.50;99.10;;;;;;4994070;28;20072;-65
2021/09/12 06:03:58;;;;;;;51.78;29.88;;;16.60;99.10;;;;;;4999082;28;20033;-64
2021/09/12 06:06:24;;;;;;;59.03;29.85;;;16.50;98.90;;;;;;4989064;28;20033;-64
2021/09/12 06:08:49;;;;;;;49.72;29.77;;;16.50;98.90;;;;;;5000959;28;20038;-63
2021/09/12 06:11:15;;;;;;;55.65;30.52;;;16.60;98.90;;;;;;4991759;28;20535;-65
2021/09/12 06:13:41;;;;;;;56.10;30.33;;;16.60;98.80;;;;;;4999654;28;20084;-64
2021/09/12 06:16:07;;;;;;;53.83;28.40;;;16.70;98.80;;;;;;5004291;28;20037;-64
2021/09/12 06:18:34;;;;;;;49.63;28.75;;;16.70;98.80;;;;;;5006927;28;20030;-64
2021/09/12 06:20:59;;;;;;;51.28;28.92;;;16.70;98.60;;;;;;4995141;28;20045;-64
2021/09/12 06:23:25;;;;;;;44.47;27.55;;;16.70;98.60;;;;;;4999408;28;20377;-63
2021/09/12 06:25:51;;;;;;;51.90;28.23;;;16.70;98.50;;;;;;5004714;28;20061;-65
2021/09/12 06:28:17;;;;;;;49.97;28.92;;;16.80;98.60;;;;;;5007389;28;20393;-64
2021/09/12 06:30:43;;;;;;;50.00;28.45;;;16.80;98.40;;;;;;4998734;28;20681;-64
2021/09/12 06:33:09;;;;;;;52.72;29.35;;;16.80;98.30;;;;;;4995849;28;20029;-64
2021/09/12 06:35:34;;;;;;;50.63;28.83;;;16.90;98.30;;;;;;5003720;28;20026;-64
2021/09/12 06:38:00;;;;;;;48.90;30.65;;;16.90;98.30;;;;;;5006869;28;20028;-64
2021/09/12 06:40:30;;;;;;;51.83;30.30;;;17.00;98.10;;;;;;5009497;28;20104;-64
2021/09/12 06:43:00;;;;;;;51.37;30.83;;;17.10;98.10;;;;;;4997662;28;20073;-64
2021/09/12 06:45:26;;;;;;;50.20;29.65;;;17.10;97.90;;;;;;5006773;28;20113;-65
2021/09/12 06:47:53;;;;;;;46.95;29.60;;;17.20;97.80;;;;;;5003995;28;20030;-64
2021/09/12 06:50:20;;;;;;;44.60;29.33;;;17.20;97.70;;;;;;5006454;28;20026;-65
2021/09/12 06:52:45;;;;;;;47.47;29.08;;;17.20;97.40;;;;;;5006301;28;20143;-64
2021/09/12 06:55:11;;;;;;;48.17;28.77;;;17.30;97.40;;;;;;5001132;28;20029;-64
2021/09/12 06:57:37;;;;;;;48.75;29.23;;;17.30;97.40;;;;;;5002751;28;20099;-64
2021/09/12 07:00:06;;;;;;;45.88;27.83;;;17.30;97.40;;;;;;5005480;28;20040;-65
2021/09/12 07:02:32;;;;;;;50.80;30.50;;;17.30;97.30;;;;;;5001148;28;20034;-64
2021/09/12 07:04:57;;;;;;;49.90;29.77;;;17.20;97.30;;;;;;4997392;28;20038;-63
2021/09/12 07:07:23;;;;;;;48.33;29.27;;;17.30;97.50;;;;;;5004131;28;20041;-63
2021/09/12 07:09:48;;;;;;;49.97;29.90;;;17.20;97.50;;;;;;5005646;28;20307;-64
2021/09/12 07:12:14;;;;;;;52.60;29.05;;;17.30;97.60;;;;;;5007303;28;20031;-65
2021/09/12 07:14:40;;;;;;;53.83;30.02;;;17.20;97.40;;;;;;4998773;28;20036;-63
2021/09/12 07:17:06;;;;;;;51.38;30.05;;;17.30;97.40;;;;;;5013042;28;20033;-64
2021/09/12 07:19:32;;;;;;;54.25;29.50;;;17.20;97.30;;;;;;5002892;28;20034;-64
2021/09/12 07:21:58;;;;;;;44.75;28.38;;;17.30;97.40;;;;;;5001819;28;20042;-64
2021/09/12 07:24:23;;;;;;;46.60;28.23;;;17.40;97.30;;;;;;5000262;28;20025;-65
2021/09/12 07:26:49;;;;;;;46.78;28.90;;;17.50;97.20;;;;;;5005777;28;20412;-64
2021/09/12 07:29:15;;;;;;;46.10;28.50;;;17.50;96.80;;;;;;4982573;28;20034;-64
2021/09/12 07:31:41;;;;;;;49.35;29.40;;;17.50;96.80;;;;;;5003039;28;20049;-64
2021/09/12 07:34:06;;;;;;;42.42;27.70;;;17.60;96.80;;;;;;4991811;28;20409;-63
2021/09/12 07:36:32;;;;;;;45.95;28.92;;;17.70;96.50;;;;;;5011286;28;20553;-64
2021/09/12 07:38:58;;;;;;;43.25;28.40;;;17.60;95.90;;;;;;5001637;28;22412;-64
2021/09/12 07:41:23;;;;;;;50.90;29.13;;;17.60;96.00;;;;;;5010547;28;20021;-64
2021/09/12 07:43:49;;;;;;;43.47;28.27;;;17.50;96.10;;;;;;5003398;28;20519;-65
2021/09/12 07:46:14;;;;;;;48.33;29.75;;;17.50;96.30;;;;;;5006091;28;20053;-64
2021/09/12 07:48:40;;;;;;;46.75;30.75;;;17.50;96.70;;;;;;5001890;28;20029;-63
2021/09/12 07:51:06;;;;;;;48.85;29.42;;;17.40;96.70;;;;;;5004045;28;20420;-64
2021/09/12 07:53:33;;;;;;;48.30;29.98;;;17.40;96.80;;;;;;4997843;28;20030;-63
2021/09/12 07:55:58;;;;;;;41.45;27.70;;;17.50;96.70;;;;;;5010842;28;20022;-65
2021/09/12 07:58:24;;;;;;;44.95;27.20;;;17.60;96.10;;;;;;4999389;28;20036;-65
2021/09/12 08:00:50;;;;;;;42.35;26.70;;;17.70;95.70;;;;;;4983993;28;20042;-63
2021/09/12 08:03:16;;;;;;;45.45;27.38;;;17.80;95.80;;;;;;4998999;28;20034;-65
2021/09/12 08:05:42;;;;;;;35.00;24.75;;;17.90;95.20;;;;;;5004895;28;20406;-65
2021/09/12 08:08:07;;;;;;;36.63;24.73;;;18.00;94.60;;;;;;5004095;28;20092;-64
2021/09/12 08:10:33;;;;;;;39.35;25.42;;;18.00;94.60;;;;;;5005679;28;20068;-63
2021/09/12 08:12:59;;;;;;;37.35;24.15;;;18.00;94.10;;;;;;5007648;28;20029;-65
2021/09/12 08:15:24;;;;;;;36.40;23.77;;;18.00;94.40;;;;;;5001161;28;20099;-65
2021/09/12 08:17:50;;;;;;;31.35;23.67;;;18.10;94.30;;;;;;5000885;28;20053;-64
2021/09/12 08:20:16;;;;;;;39.22;23.90;;;18.20;93.50;;;;;;5003324;28;20394;-63
2021/09/12 08:22:41;;;;;;;35.22;24.20;;;18.30;93.40;;;;;;4996819;28;20022;-69
2021/09/12 08:25:08;;;;;;;36.45;24.40;;;18.20;93.50;;;;;;4998397;28;20034;-66
2021/09/12 08:27:33;;;;;;;35.58;23.23;;;18.20;93.10;;;;;;4999724;28;20850;-65
2021/09/12 08:29:59;;;;;;;33.67;23.55;;;18.30;93.20;;;;;;5004802;28;20131;-65
2021/09/12 08:32:24;;;;;;;34.75;23.60;;;18.20;93.00;;;;;;5001989;28;20079;-66
2021/09/12 08:34:50;;;;;;;35.97;25.38;;;18.10;93.50;;;;;;5002239;28;20108;-65
2021/09/12 08:37:16;;;;;;;36.03;23.48;;;18.10;93.90;;;;;;5002870;28;20168;-64
2021/09/12 08:39:43;;;;;;;37.47;23.50;;;18.10;94.00;;;;;;5000178;28;20497;-65
2021/09/12 08:42:17;;;;;;;33.95;22.65;;;18.10;93.80;;;;;;4999860;28;20029;-64
2021/09/12 08:44:48;;;;;;;34.17;22.40;;;18.20;93.50;;;;;;5002824;28;20026;-65
2021/09/12 08:47:15;;;;;;;35.33;21.05;;;18.10;92.10;;;;;;5005437;28;20497;-66
2021/09/12 08:49:42;;;;;;;32.97;20.30;;;18.20;91.20;;;;;;4999581;28;20059;-65
2021/09/12 08:52:09;;;;;;;29.23;20.77;;;18.30;91.40;;;;;;4998565;28;20611;-65
2021/09/12 08:54:34;;;;;;;26.98;21.30;;;18.20;90.90;;;;;;4997377;28;20026;-64
2021/09/12 08:57:00;;;;;;;32.10;20.67;;;18.30;91.50;;;;;;5001272;28;20105;-62
2021/09/12 08:59:28;;;;;;;28.77;20.08;;;18.40;91.20;;;;;;4990834;28;20037;-65
2021/09/12 09:01:58;;;;;;;28.02;20.58;;;18.30;91.30;;;;;;5001417;28;20033;-64
2021/09/12 09:04:34;;;;;;;31.58;20.45;;;18.40;91.20;;;;;;4991039;28;20193;-64
2021/09/12 09:07:05;;;;;;;25.95;20.38;;;18.40;90.70;;;;;;4994918;28;20041;-65
2021/09/12 09:09:46;;;;;;;28.73;18.73;;;18.60;90.00;;;;;;5006255;28;20084;-64
2021/09/12 09:12:25;;;;;;;20.83;17.80;;;18.90;89.90;;;;;;5005531;28;20029;-62
2021/09/12 09:15:12;;;;;;;25.38;17.70;;;18.90;88.80;;;;;;5001841;28;20026;-64
2021/09/12 09:17:40;;;;;;;24.90;17.67;;;18.80;88.20;;;;;;5004473;28;20022;-65
2021/09/12 09:20:08;;;;;;;24.10;17.50;;;18.90;88.30;;;;;;5004742;28;20049;-62
2021/09/12 09:22:42;;;;;;;28.05;17.65;;;18.90;88.30;;;;;;5003188;28;20120;-63
2021/09/12 09:25:20;;;;;;;24.83;17.30;;;18.80;89.10;;;;;;5004064;28;20028;-63
2021/09/12 09:28:02;;;;;;;27.70;16.63;;;18.80;88.60;;;;;;4995124;28;20030;-65
2021/09/12 09:30:31;;;;;;;28.95;17.88;;;18.80;88.70;;;;;;5013573;28;20396;-64
2021/09/12 09:33:19;;;;;;;28.15;18.10;;;18.80;88.80;;;;;;5007833;28;20030;-65
2021/09/12 09:36:04;;;;;;;26.83;16.40;;;18.70;89.20;;;;;;5004589;28;20117;-64
2021/09/12 09:38:32;;;;;;;31.42;16.35;;;18.70;88.90;;;;;;4990449;28;20022;-63
2021/09/12 09:41:04;;;;;;;25.30;14.80;;;18.70;89.00;;;;;;5006805;28;20152;-63
2021/09/12 09:43:49;;;;;;;21.13;13.65;;;18.80;88.60;;;;;;4987974;28;20452;-63
2021/09/12 09:46:37;;;;;;;21.50;13.10;;;18.90;88.50;;;;;;4988067;28;20070;-64
2021/09/12 09:49:21;;;;;;;17.45;12.73;;;19.00;88.40;;;;;;5004295;28;20041;-62
2021/09/12 09:51:48;;;;;;;21.33;13.32;;;19.10;88.20;;;;;;5004881;28;20033;-65
2021/09/12 09:54:15;;;;;;;20.30;12.85;;;19.20;87.80;;;;;;4997311;28;20080;-63
2021/09/12 09:56:46;;;;;;;17.05;12.07;;;19.10;87.40;;;;;;5000074;28;20050;-64
2021/09/12 09:59:16;;;;;;;24.50;12.20;;;19.00;87.40;;;;;;5007109;28;20362;-64
2021/09/12 10:01:46;;;;;;;19.55;11.40;;;19.30;87.50;;;;;;5001532;28;20025;-65
2021/09/12 10:04:13;;;;;;;20.38;11.30;;;19.30;87.70;;;;;;4997075;28;20022;-65
2021/09/12 10:06:40;;;;;;;19.08;11.75;;;19.50;86.30;;;;;;5003986;28;20029;-64
2021/09/12 10:09:08;;;;;;;17.30;11.13;;;19.60;85.80;;;;;;5003758;28;20113;-65
2021/09/12 10:11:34;;;;;;;19.00;12.05;;;19.50;86.10;;;;;;5000726;28;20036;-65
2021/09/12 10:14:01;;;;;;;16.67;10.70;;;19.30;86.60;;;;;;5013416;28;20621;-63
2021/09/12 10:16:27;;;;;;;21.10;11.07;;;19.20;86.60;;;;;;5002583;28;20041;-64
2021/09/12 10:18:53;;;;;;;17.45;11.25;;;19.20;86.60;;;;;;5004087;28;20060;-65
2021/09/12 10:21:24;;;;;;;17.10;10.90;;;19.20;86.80;;;;;;5001832;28;20099;-64
2021/09/12 10:24:07;;;;;;;22.17;11.60;;;19.40;87.20;;;;;;5008351;28;20084;-62
2021/09/12 10:26:40;;;;;;;19.63;11.15;;;19.40;86.80;;;;;;5002326;28;20026;-65
2021/09/12 10:29:53;;;;;;;19.45;11.02;;;19.30;86.60;;;;;;5017036;28;20032;-65
2021/09/12 10:32:33;;;;;;;16.60;10.32;;;19.30;86.20;;;;;;4998434;28;20037;-63
2021/09/12 10:35:26;;;;;;;17.23;12.10;;;19.50;86.30;;;;;;5008129;28;20401;-63
2021/09/12 10:38:08;;;;;;;21.13;13.52;;;19.80;86.00;;;;;;5006480;28;20455;-63
2021/09/12 10:40:49;;;;;;;21.65;13.57;;;19.90;84.70;;;;;;5001029;28;20113;-64
2021/09/12 10:43:40;;;;;;;18.98;12.45;;;20.00;83.80;;;;;;5004331;28;20496;-64
2021/09/12 10:46:05;;;;;;;;;;;20.30;83.10;;;;;;5007961;28;20041;-63
2021/09/12 10:48:45;;;;;;;18.23;12.55;;;20.50;83.60;;;;;;5006620;28;19910;-65
2021/09/12 10:51:12;;;;;;;17.00;12.82;;;20.60;82.50;;;;;;5006306;28;20036;-63
2021/09/12 10:53:47;;;;;;;19.85;12.80;;;20.30;82.60;;;;;;5003755;28;20164;-62
2021/09/12 10:56:13;;;;;;;17.50;12.60;;;20.20;83.40;;;;;;5008924;28;20082;-63
2021/09/12 10:58:39;;;;;;;19.70;12.98;;;20.20;83.20;;;;;;5016192;28;20025;-64
2021/09/12 11:01:06;;;;;;;20.42;12.95;;;20.00;84.00;;;;;;5009223;28;20022;-65
2021/09/12 11:03:33;;;;;;;18.45;12.13;;;19.60;84.60;;;;;;5005730;28;20408;-63
2021/09/12 11:06:00;;;;;;;19.60;12.38;;;19.60;84.60;;;;;;5005450;28;20064;-65
2021/09/12 11:08:35;;;;;;;23.83;12.40;;;19.70;85.10;;;;;;5005741;28;20388;-64
2021/09/12 11:11:00;;;;;;;16.98;12.23;;;19.70;85.00;;;;;;5005852;28;20029;-64
2021/09/12 11:13:26;;;;;;;19.02;12.65;;;19.80;84.90;;;;;;5002473;28;20025;-63
2021/09/12 11:16:03;;;;;;;21.33;10.98;;;19.70;84.60;;;;;;5003347;28;20028;-63
2021/09/12 11:18:43;;;;;;;17.25;11.05;;;19.80;84.60;;;;;;5005216;28;20601;-63
2021/09/12 11:21:09;;;;;;;18.48;12.23;;;19.90;84.60;;;;;;5004354;28;20085;-63
2021/09/12 11:23:36;;;;;;;18.50;11.88;;;20.00;84.90;;;;;;5005694;28;20044;-64
2021/09/12 11:26:02;;;;;;;19.08;12.90;;;20.00;84.50;;;;;;5007795;28;20085;-63
2021/09/12 11:28:30;;;;;;;16.58;12.20;;;20.00;83.60;;;;;;5000118;28;20057;-64
2021/09/12 11:30:57;;;;;;;19.35;12.85;;;20.00;83.40;;;;;;5005655;28;20109;-62
2021/09/12 11:33:42;;;;;;;17.90;13.15;;;20.00;83.30;;;;;;5004683;28;20034;-64
2021/09/12 11:36:08;;;;;;;20.63;14.43;;;20.10;83.10;;;;;;5006791;28;20113;-64
2021/09/12 11:38:34;;;;;;;16.65;13.23;;;20.10;82.70;;;;;;5005576;28;20493;-63
2021/09/12 11:40:59;;;;;;;18.05;12.77;;;20.20;83.60;;;;;;5013436;28;20145;-64
2021/09/12 11:43:26;;;;;;;20.35;12.98;;;20.10;82.30;;;;;;5003997;28;20026;-64
2021/09/12 11:46:18;;;;;;;20.98;13.15;;;20.10;83.00;;;;;;5003677;28;20049;-63
2021/09/12 11:48:58;;;;;;;24.83;12.73;;;20.10;82.80;;;;;;5006134;28;20046;-64
2021/09/12 11:51:28;;;;;;;18.15;11.68;;;20.60;82.00;;;;;;4988463;28;20509;-63
2021/09/12 11:54:22;;;;;;;17.25;12.80;;;21.00;80.50;;;;;;5006057;28;20474;-62
2021/09/12 11:56:57;;;;;;;18.90;10.85;;;21.00;79.70;;;;;;5005306;28;20026;-64
2021/09/12 11:59:24;;;;;;;14.82;10.13;;;20.90;80.80;;;;;;5003936;28;20118;-63
2021/09/12 12:01:52;;;;;;;17.75;11.95;;;20.80;79.60;;;;;;5002464;28;20022;-64
2021/09/12 12:04:20;;;;;;;20.92;10.60;;;21.00;79.10;;;;;;5005433;28;20029;-64
2021/09/12 12:06:50;;;;;;;15.15;10.35;;;21.50;78.10;;;;;;5003551;28;20596;-65
2021/09/12 12:09:24;;;;;;;18.03;10.63;;;21.60;77.50;;;;;;4999027;28;20025;-64
2021/09/12 12:11:50;;;;;;;17.55;10.15;;;21.20;77.60;;;;;;4999742;28;20036;-62
2021/09/12 12:14:21;;;;;;;12.73;8.63;;;21.00;78.30;;;;;;5008796;28;20405;-64
2021/09/12 12:16:47;;;;;;;;;;;21.00;76.90;;;;;;5004400;28;20517;-64
2021/09/12 12:19:14;;;;;;;13.23;8.57;;;20.90;77.10;;;;;;5004621;28;19913;-65
2021/09/12 12:21:42;;;;;;;16.05;9.38;;;20.90;77.80;;;;;;5003305;28;20038;-62
2021/09/12 12:24:13;;;;;;;12.80;9.88;;;20.80;77.90;;;;;;5002946;28;20508;-62
2021/09/12 12:26:40;;;;;;;;;;;20.80;78.00;;;;;;4995749;28;20030;-64
2021/09/12 12:29:05;;;;;;;20.20;11.02;;;21.00;78.30;;;;;;5002405;28;19982;-62
2021/09/12 12:31:31;;;;;;;13.98;10.98;;;21.00;78.10;;;;;;5006133;28;20022;-65